createdAt,value
2022-12-01T00:06:03.188Z,1.00
2022-12-01T00:11:03.492Z,1.00
2022-12-01T00:23:22.753Z,0.90
2022-12-01T00:28:17.016Z,0.10
2022-12-01T00:40:31.477Z,0.80
2022-12-01T00:45:25.681Z,0.90
2022-12-01T01:00:09.288Z,1.00
2022-12-01T01:02:38.977Z,1.00
2022-12-01T01:05:06.888Z,1.10
2022-12-01T01:07:33.642Z,0.90
2022-12-01T01:12:27.810Z,1.00
2022-12-01T01:19:50.342Z,1.30
2022-12-01T01:24:44.179Z,1.10
2022-12-01T01:36:59.748Z,1.10
2022-12-01T01:44:49.759Z,0.90
2022-12-01T01:47:20.201Z,0.90
2022-12-01T01:52:15.779Z,0.90
2022-12-01T01:54:47.506Z,1.20
2022-12-01T01:57:19.119Z,1.00
2022-12-01T01:59:49.792Z,2.50
2022-12-01T02:04:47.151Z,1.00
2022-12-01T02:07:18.257Z,1.00
2022-12-01T02:09:45.402Z,0.90
2022-12-01T02:12:24.342Z,0.90
2022-12-01T02:15:14.599Z,0.90
2022-12-01T02:17:47.626Z,0.90
2022-12-01T02:20:56.505Z,0.90
2022-12-01T02:23:52.136Z,0.90
2022-12-01T02:26:39.116Z,0.90
2022-12-01T02:29:50.858Z,0.70
2022-12-01T02:32:27.225Z,0.80
2022-12-01T02:34:58.974Z,0.80
2022-12-01T02:37:32.247Z,0.80
2022-12-01T02:40:05.989Z,0.80
2022-12-01T02:42:53.296Z,0.40
2022-12-01T02:45:34.959Z,0.70
2022-12-01T02:48:04.932Z,0.80
2022-12-01T02:50:35.011Z,0.70
2022-12-01T02:53:04.049Z,0.70
2022-12-01T02:57:57.571Z,0.70
2022-12-01T03:03:08.976Z,0.70
2022-12-01T03:05:44.863Z,0.70
2022-12-01T03:08:19.987Z,0.70
2022-12-01T03:10:52.239Z,0.60
2022-12-01T03:13:30.224Z,0.70
2022-12-01T03:16:00.515Z,0.60
2022-12-01T03:18:35.537Z,0.60
2022-12-01T03:21:09.279Z,0.60
2022-12-01T03:23:39.294Z,0.60
2022-12-01T03:26:09.461Z,0.60
2022-12-01T03:28:40.860Z,0.60
2022-12-01T03:31:11.919Z,0.60
2022-12-01T03:33:44.569Z,0.50
2022-12-01T03:36:16.268Z,0.90
2022-12-01T03:38:45.530Z,0.60
2022-12-01T03:41:17.223Z,0.50
2022-12-01T03:43:50.459Z,0.60
2022-12-01T03:46:23.982Z,0.60
2022-12-01T03:51:26.419Z,0.60
2022-12-01T03:53:57.760Z,0.60
2022-12-01T03:56:30.308Z,0.60
2022-12-01T03:58:59.976Z,0.60
2022-12-01T04:01:31.996Z,0.60
2022-12-01T04:04:05.523Z,0.70
2022-12-01T04:06:32.502Z,0.60
2022-12-01T04:16:38.696Z,0.50
2022-12-01T04:36:16.013Z,1.00
2022-12-01T04:41:10.515Z,0.60
2022-12-01T04:50:58.382Z,0.30
2022-12-01T04:53:25.665Z,0.50
2022-12-01T05:10:37.218Z,0.50
2022-12-01T05:15:31.407Z,0.40
2022-12-01T05:20:44.431Z,0.50
2022-12-01T05:35:32.998Z,0.30
2022-12-01T05:40:34.924Z,0.40
2022-12-01T05:43:02.256Z,0.40
2022-12-01T05:45:29.376Z,0.40
2022-12-01T06:00:13.034Z,0.50
2022-12-01T06:05:08.404Z,0.40
2022-12-01T06:07:35.249Z,0.50
2022-12-01T06:10:02.347Z,0.40
2022-12-01T06:12:29.236Z,0.40
2022-12-01T06:17:23.477Z,0.40
2022-12-01T06:24:44.258Z,1.10
2022-12-01T06:32:10.180Z,0.50
2022-12-01T06:34:37.511Z,0.50
2022-12-01T06:51:47.283Z,0.60
2022-12-01T06:59:09.281Z,0.80
2022-12-01T07:06:31.663Z,0.50
2022-12-01T07:08:59.133Z,0.60
2022-12-01T07:13:55.590Z,0.60
2022-12-01T07:18:49.796Z,0.70
2022-12-01T07:21:17.099Z,0.60
2022-12-01T07:23:43.739Z,0.50
2022-12-01T07:26:13.004Z,0.80
2022-12-01T07:31:08.592Z,0.80
2022-12-01T07:36:04.198Z,0.70
2022-12-01T07:38:32.084Z,0.70
2022-12-01T07:43:31.221Z,0.80
2022-12-01T07:46:03.168Z,0.70
2022-12-01T07:58:18.001Z,1.10
2022-12-01T08:00:45.322Z,2.30
2022-12-01T08:08:06.029Z,0.70
2022-12-01T08:30:13.384Z,1.30
2022-12-01T09:09:42.062Z,0.90
2022-12-01T09:12:09.417Z,0.90
2022-12-01T09:14:37.949Z,1.00
2022-12-01T09:19:31.788Z,1.10
2022-12-01T09:24:25.416Z,1.00
2022-12-01T09:26:56.013Z,0.90
2022-12-01T09:29:24.612Z,0.90
2022-12-01T09:34:19.897Z,0.90
2022-12-01T09:39:15.573Z,1.30
2022-12-01T09:41:45.673Z,1.20
2022-12-01T09:44:22.071Z,0.90
2022-12-01T09:46:52.965Z,0.90
2022-12-01T09:49:22.551Z,1.10
2022-12-01T09:51:49.641Z,0.60
2022-12-01T09:56:45.899Z,1.20
2022-12-01T09:59:19.860Z,1.20
2022-12-01T10:01:49.760Z,1.10
2022-12-01T10:04:20.735Z,1.20
2022-12-01T10:06:51.669Z,1.20
2022-12-01T10:09:24.162Z,1.10
2022-12-01T10:11:54.465Z,1.10
2022-12-01T10:14:21.784Z,1.20
2022-12-01T10:19:28.317Z,1.30
2022-12-01T10:22:19.472Z,1.30
2022-12-01T10:24:54.834Z,1.30
2022-12-01T10:27:33.579Z,1.30
2022-12-01T10:30:06.321Z,1.40
2022-12-01T10:32:46.406Z,1.30
2022-12-01T10:35:16.260Z,1.30
2022-12-01T10:37:44.747Z,1.40
2022-12-01T10:40:14.121Z,1.30
2022-12-01T10:42:45.089Z,1.20
2022-12-01T10:45:18.197Z,1.30
2022-12-01T10:48:15.842Z,1.30
2022-12-01T10:53:29.347Z,1.30
2022-12-01T10:56:05.429Z,1.40
2022-12-01T10:58:33.747Z,1.30
2022-12-01T11:01:05.493Z,1.30
2022-12-01T11:03:34.573Z,1.20
2022-12-01T11:06:04.085Z,1.30
2022-12-01T11:08:36.734Z,1.40
2022-12-01T11:13:35.038Z,1.30
2022-12-01T11:16:04.693Z,1.30
2022-12-01T11:18:33.753Z,1.30
2022-12-01T11:21:09.861Z,0.60
2022-12-01T11:23:38.028Z,1.40
2022-12-01T11:26:14.429Z,1.30
2022-12-01T11:28:51.461Z,1.10
2022-12-01T11:31:20.202Z,1.40
2022-12-01T11:33:50.580Z,1.40
2022-12-01T11:36:27.146Z,1.40
2022-12-01T11:38:59.757Z,1.40
2022-12-01T11:41:34.827Z,1.40
2022-12-01T11:44:06.208Z,1.40
2022-12-01T11:46:42.690Z,1.40
2022-12-01T11:49:17.754Z,1.40
2022-12-01T11:54:16.856Z,1.40
2022-12-01T11:56:44.809Z,1.40
2022-12-01T11:59:14.792Z,1.40
2022-12-01T12:01:58.810Z,1.40
2022-12-01T12:04:37.568Z,1.40
2022-12-01T12:07:13.184Z,1.40
2022-12-01T12:09:52.079Z,1.50
2022-12-01T12:12:35.853Z,1.50
2022-12-01T12:15:12.547Z,1.50
2022-12-01T12:17:50.923Z,1.50
2022-12-01T12:20:35.602Z,1.50
2022-12-01T12:23:18.288Z,1.50
2022-12-01T12:25:58.091Z,1.70
2022-12-01T12:28:38.106Z,1.50
2022-12-01T12:31:11.290Z,1.70
2022-12-01T12:34:00.383Z,1.60
2022-12-01T12:36:37.567Z,1.60
2022-12-01T12:39:23.764Z,1.70
2022-12-01T12:41:53.985Z,1.60
2022-12-01T12:44:39.026Z,1.60
2022-12-01T12:47:16.151Z,1.60
2022-12-01T12:49:50.538Z,1.60
2022-12-01T12:52:23.014Z,1.50
2022-12-01T12:54:54.683Z,1.70
2022-12-01T12:57:29.174Z,1.40
2022-12-01T13:00:01.872Z,1.50
2022-12-01T13:02:35.923Z,1.40
2022-12-01T13:05:12.434Z,1.50
2022-12-01T13:07:46.052Z,1.60
2022-12-01T13:11:33.248Z,1.60
2022-12-01T13:14:05.760Z,1.60
2022-12-01T13:16:35.613Z,1.60
2022-12-01T13:19:07.289Z,1.40
2022-12-01T13:21:40.359Z,1.60
2022-12-01T13:24:10.449Z,1.60
2022-12-01T13:26:39.457Z,1.70
2022-12-01T13:29:14.444Z,1.70
2022-12-01T13:31:43.508Z,1.60
2022-12-01T13:34:22.457Z,1.70
2022-12-01T13:36:51.376Z,1.60
2022-12-01T13:39:20.807Z,1.60
2022-12-01T13:41:58.522Z,1.60
2022-12-01T13:44:27.068Z,1.60
2022-12-01T13:46:58.991Z,1.60
2022-12-01T13:49:39.988Z,1.60
2022-12-01T13:52:29.814Z,1.70
2022-12-01T13:55:02.602Z,1.60
2022-12-01T13:57:31.668Z,2.90
2022-12-01T14:00:23.308Z,1.60
2022-12-01T14:03:23.335Z,1.60
2022-12-01T14:05:56.464Z,0.60
2022-12-01T14:08:25.872Z,1.70
2022-12-01T14:10:56.371Z,1.60
2022-12-01T14:13:24.371Z,1.60
2022-12-01T14:15:56.290Z,1.80
2022-12-01T14:18:35.491Z,1.70
2022-12-01T14:21:05.515Z,1.90
2022-12-01T14:23:35.528Z,1.70
2022-12-01T14:26:17.840Z,1.70
2022-12-01T14:29:21.341Z,1.70
2022-12-01T14:32:24.795Z,1.70
2022-12-01T14:35:10.014Z,1.90
2022-12-01T14:37:52.169Z,1.70
2022-12-01T14:40:27.952Z,1.70
2022-12-01T14:43:14.916Z,1.70
2022-12-01T14:45:50.227Z,1.60
2022-12-01T14:48:23.453Z,1.80
2022-12-01T14:50:53.295Z,1.70
2022-12-01T14:53:29.382Z,1.70
2022-12-01T14:56:00.256Z,1.80
2022-12-01T14:58:31.619Z,2.00
2022-12-01T15:01:03.286Z,2.00
2022-12-01T15:03:35.883Z,1.70
2022-12-01T15:11:25.118Z,1.80
2022-12-01T15:13:54.444Z,1.70
2022-12-01T15:16:23.622Z,2.20
2022-12-01T15:18:50.845Z,1.80
2022-12-01T15:21:20.278Z,1.70
2022-12-01T15:23:58.597Z,1.70
2022-12-01T15:26:28.911Z,1.70
2022-12-01T15:29:13.207Z,2.00
2022-12-01T15:34:14.796Z,1.50
2022-12-01T15:36:41.943Z,1.80
2022-12-01T15:39:15.040Z,1.70
2022-12-01T15:41:43.634Z,1.70
2022-12-01T15:44:20.334Z,1.70
2022-12-01T15:49:18.802Z,1.60
2022-12-01T15:51:46.545Z,1.60
2022-12-01T15:54:19.796Z,0.90
2022-12-01T15:56:51.750Z,1.60
2022-12-01T15:59:27.028Z,1.60
2022-12-01T16:04:25.857Z,1.60
2022-12-01T16:06:57.437Z,1.50
2022-12-01T16:09:28.686Z,1.50
2022-12-01T16:12:22.510Z,1.50
2022-12-01T16:14:52.325Z,1.50
2022-12-01T16:22:17.196Z,1.50
2022-12-01T16:24:46.865Z,1.50
2022-12-01T16:27:21.215Z,1.50
2022-12-01T16:29:51.222Z,1.40
2022-12-01T16:32:21.613Z,1.50
2022-12-01T16:34:50.068Z,1.60
2022-12-01T16:37:16.999Z,1.40
2022-12-01T16:39:43.813Z,1.40
2022-12-01T16:42:13.321Z,1.30
2022-12-01T16:44:41.424Z,1.30
2022-12-01T16:47:17.740Z,1.30
2022-12-01T16:49:45.068Z,1.20
2022-12-01T16:59:53.728Z,0.40
2022-12-01T17:07:15.614Z,1.00
2022-12-01T17:12:09.576Z,1.20
2022-12-01T17:19:30.835Z,1.20
2022-12-01T17:26:51.924Z,1.20
2022-12-01T17:36:41.017Z,1.20
2022-12-01T17:44:03.020Z,2.40
2022-12-01T17:53:52.808Z,1.30
2022-12-01T18:01:15.447Z,1.30
2022-12-01T18:08:37.464Z,1.30
2022-12-01T18:11:07.264Z,1.30
2022-12-01T18:13:35.555Z,1.40
2022-12-01T18:16:06.630Z,1.30
2022-12-01T18:45:34.113Z,1.50
2022-12-01T18:48:00.840Z,1.70
2022-12-01T19:00:18.787Z,1.50
2022-12-01T19:02:46.243Z,1.50
2022-12-01T19:05:13.376Z,1.50
2022-12-01T19:10:08.161Z,1.60
2022-12-01T19:15:09.278Z,1.60
2022-12-01T19:17:35.947Z,1.60
2022-12-01T19:20:03.989Z,1.60
2022-12-01T19:22:31.980Z,1.60
2022-12-01T19:24:58.623Z,1.50
2022-12-01T19:27:25.883Z,1.60
2022-12-01T19:29:53.223Z,1.60
2022-12-01T19:37:15.425Z,1.80
2022-12-01T19:47:09.335Z,1.40
2022-12-01T19:52:05.453Z,1.60
2022-12-01T19:54:34.374Z,1.60
2022-12-01T20:02:02.051Z,1.80
2022-12-01T20:11:50.727Z,1.70
2022-12-01T20:19:20.938Z,1.70
2022-12-01T20:24:19.524Z,1.70
2022-12-01T20:26:49.186Z,1.70
2022-12-01T20:29:18.754Z,2.10
2022-12-01T20:31:47.073Z,1.70
2022-12-01T20:34:16.243Z,1.70
2022-12-01T20:39:13.467Z,1.90
2022-12-01T20:41:41.389Z,1.80
2022-12-01T20:44:08.748Z,1.60
2022-12-01T20:46:37.363Z,1.80
2022-12-01T20:49:04.698Z,1.80
2022-12-01T20:51:32.520Z,1.70
2022-12-01T20:54:27.250Z,1.80
2022-12-01T21:01:44.360Z,2.00
2022-12-01T21:09:07.724Z,2.00
2022-12-01T21:12:04.839Z,1.80
2022-12-01T21:14:36.100Z,1.90
2022-12-01T21:19:47.250Z,1.80
2022-12-01T21:27:13.765Z,1.80
2022-12-01T21:29:43.619Z,1.80
2022-12-01T21:32:14.895Z,1.80
2022-12-01T21:34:41.867Z,1.90
2022-12-01T21:37:16.101Z,1.90
2022-12-01T21:42:17.666Z,2.00
2022-12-01T21:44:44.507Z,2.00
2022-12-01T21:47:17.370Z,1.90
2022-12-01T21:49:44.629Z,1.80
2022-12-01T21:52:16.541Z,2.00
2022-12-01T21:54:43.124Z,1.80
2022-12-01T21:57:27.381Z,1.80
2022-12-01T21:59:58.129Z,1.80
2022-12-01T22:02:36.136Z,1.90
2022-12-01T22:09:57.002Z,1.90
2022-12-01T22:12:27.334Z,1.50
2022-12-01T22:15:00.187Z,1.80
2022-12-01T22:17:27.948Z,1.80
2022-12-01T22:19:56.728Z,1.80
2022-12-01T22:22:25.135Z,1.80
2022-12-01T22:24:53.743Z,1.80
2022-12-01T22:27:30.052Z,1.80
2022-12-01T22:30:00.047Z,1.80
2022-12-01T22:32:39.808Z,1.90
2022-12-01T22:35:28.569Z,1.90
2022-12-01T22:37:59.826Z,1.80
2022-12-01T22:40:36.661Z,1.40
2022-12-01T22:43:40.850Z,1.80
2022-12-01T22:46:15.982Z,1.60
2022-12-01T22:48:45.337Z,1.80
2022-12-01T22:51:25.736Z,1.80
2022-12-01T22:53:58.013Z,1.90
2022-12-01T22:56:29.624Z,1.90
2022-12-01T23:01:26.814Z,1.80
2022-12-01T23:04:07.769Z,1.80
2022-12-01T23:06:57.320Z,1.80
2022-12-01T23:09:27.605Z,1.80
2022-12-01T23:11:59.319Z,1.80
2022-12-01T23:16:57.663Z,1.70
2022-12-01T23:19:25.312Z,1.80
2022-12-01T23:31:41.067Z,1.80
2022-12-01T23:34:13.198Z,1.80
2022-12-01T23:36:40.412Z,2.10
2022-12-01T23:39:12.041Z,1.80
2022-12-01T23:41:40.552Z,1.80
2022-12-01T23:44:13.417Z,1.90
2022-12-01T23:49:13.594Z,1.80
2022-12-01T23:51:46.413Z,1.90
2022-12-01T23:54:16.375Z,1.90
2022-12-01T23:56:46.935Z,1.90
2022-12-01T23:59:14.214Z,0.80
